createdAt,value
2019-02-04T00:00:01.862Z,6.60
2019-02-04T00:02:50.155Z,7.00
2019-02-04T00:05:38.915Z,7.50
2019-02-04T00:08:27.982Z,7.50
2019-02-04T00:11:16.591Z,9.70
2019-02-04T00:14:04.782Z,6.40
2019-02-04T00:16:53.030Z,6.60
2019-02-04T00:19:41.534Z,6.20
2019-02-04T00:22:31.450Z,7.47
2019-02-04T00:25:21.596Z,7.13
2019-02-04T00:28:09.977Z,8.17
2019-02-04T00:30:50.419Z,7.40
2019-02-04T00:33:31.291Z,7.70
2019-02-04T00:36:12.410Z,7.10
2019-02-04T00:38:53.302Z,6.57
2019-02-04T00:41:34.159Z,8.13
2019-02-04T00:44:15.118Z,7.03
2019-02-04T00:46:56.073Z,7.77
2019-02-04T00:49:36.847Z,8.00
2019-02-04T00:52:17.721Z,7.67
2019-02-04T00:54:58.293Z,7.73
2019-02-04T00:57:38.999Z,7.90
2019-02-04T01:00:19.750Z,8.30
2019-02-04T01:03:00.474Z,7.53
2019-02-04T01:05:41.366Z,8.20
2019-02-04T01:08:22.058Z,7.07
2019-02-04T01:11:03.295Z,7.60
2019-02-04T01:13:43.789Z,8.90
2019-02-04T01:16:24.614Z,7.37
2019-02-04T01:19:05.422Z,7.97
2019-02-04T01:21:46.931Z,7.80
2019-02-04T01:24:27.642Z,7.87
2019-02-04T01:27:08.110Z,8.40
2019-02-04T01:29:48.803Z,8.10
2019-02-04T01:32:17.929Z,8.40
2019-02-04T01:34:49.019Z,9.30
2019-02-04T01:37:37.293Z,9.43
2019-02-04T01:40:25.853Z,7.70
2019-02-04T01:43:14.310Z,9.80
2019-02-04T01:46:02.802Z,8.97
2019-02-04T01:48:50.722Z,8.90
2019-02-04T01:51:39.167Z,8.73
2019-02-04T01:54:27.371Z,8.60
2019-02-04T01:57:15.577Z,8.10
2019-02-04T02:00:04.508Z,8.13
2019-02-04T02:02:53.310Z,8.20
2019-02-04T02:05:41.498Z,7.60
2019-02-04T02:08:29.763Z,7.60
2019-02-04T02:11:19.674Z,8.47
2019-02-04T02:14:07.911Z,7.40
2019-02-04T02:16:56.115Z,8.07
2019-02-04T02:19:44.596Z,9.47
2019-02-04T02:22:33.166Z,8.17
2019-02-04T02:25:21.619Z,8.50
2019-02-04T02:28:09.838Z,9.57
2019-02-04T02:30:51.193Z,9.30
2019-02-04T02:33:32.383Z,11.80
2019-02-04T02:36:13.813Z,9.33
2019-02-04T02:38:42.976Z,9.93
2019-02-04T02:41:31.537Z,9.97
2019-02-04T02:44:20.068Z,8.90
2019-02-04T02:47:09.228Z,9.07
2019-02-04T02:49:57.799Z,7.73
2019-02-04T02:52:45.998Z,8.47
2019-02-04T02:55:34.219Z,8.27
2019-02-04T02:58:22.763Z,8.70
2019-02-04T03:01:11.233Z,8.50
2019-02-04T03:04:01.536Z,9.27
2019-02-04T03:06:30.966Z,8.73
2019-02-04T03:09:19.183Z,8.90
2019-02-04T03:12:07.456Z,8.87
2019-02-04T03:14:56.024Z,9.60
2019-02-04T03:17:51.852Z,8.00
2019-02-04T03:20:36.201Z,8.90
2019-02-04T03:23:26.405Z,8.97
2019-02-04T03:26:14.685Z,8.87
2019-02-04T03:28:55.642Z,8.20
2019-02-04T03:31:39.337Z,7.33
2019-02-04T03:34:19.378Z,8.30
2019-02-04T03:37:01.030Z,8.07
2019-02-04T03:39:41.477Z,8.73
2019-02-04T03:42:22.131Z,9.53
2019-02-04T03:45:03.305Z,8.87
2019-02-04T03:47:44.021Z,8.57
2019-02-04T03:50:25.122Z,10.00
2019-02-04T03:52:54.526Z,7.80
2019-02-04T03:55:43.016Z,8.40
2019-02-04T03:58:31.220Z,9.30
2019-02-04T04:01:19.525Z,8.20
2019-02-04T04:04:08.415Z,8.70
2019-02-04T04:06:58.600Z,9.10
2019-02-04T04:09:47.069Z,7.60
2019-02-04T04:12:37.282Z,8.30
2019-02-04T04:15:25.214Z,8.60
2019-02-04T04:18:15.633Z,9.30
2019-02-04T04:20:48.955Z,9.83
2019-02-04T04:23:29.718Z,10.40
2019-02-04T04:26:10.596Z,8.80
2019-02-04T04:28:52.271Z,9.10
2019-02-04T04:31:33.705Z,8.83
2019-02-04T04:34:14.884Z,9.30
2019-02-04T04:36:56.068Z,10.00
2019-02-04T04:39:25.243Z,10.17
2019-02-04T04:42:13.446Z,9.30
2019-02-04T04:45:02.013Z,10.60
2019-02-04T04:47:50.528Z,10.50
2019-02-04T04:50:39.074Z,9.67
2019-02-04T04:53:27.280Z,10.20
2019-02-04T04:56:15.503Z,10.93
2019-02-04T04:59:03.732Z,10.23
2019-02-04T05:01:53.691Z,9.77
2019-02-04T05:04:42.163Z,9.50
2019-02-04T05:07:11.294Z,8.63
2019-02-04T05:09:59.668Z,10.17
2019-02-04T05:12:48.148Z,13.30
2019-02-04T05:15:36.735Z,12.03
2019-02-04T05:18:24.950Z,13.37
2019-02-04T05:21:13.196Z,10.30
2019-02-04T05:23:42.671Z,11.67
2019-02-04T05:26:30.898Z,10.70
2019-02-04T05:29:21.159Z,16.80
2019-02-04T05:32:29.931Z,14.93
2019-02-04T05:34:59.077Z,12.03
2019-02-04T05:37:47.305Z,18.93
2019-02-04T05:40:35.865Z,12.77
2019-02-04T05:43:05.092Z,12.00
2019-02-04T05:45:53.669Z,12.07
2019-02-04T05:48:49.140Z,11.30
2019-02-04T05:51:32.180Z,10.93
2019-02-04T05:54:21.043Z,10.20
2019-02-04T05:57:09.546Z,10.17
2019-02-04T05:59:57.766Z,10.73
2019-02-04T06:02:46.590Z,10.87
2019-02-04T06:05:34.977Z,10.87
2019-02-04T06:08:23.214Z,13.73
2019-02-04T06:11:11.464Z,12.37
2019-02-04T06:14:00.002Z,10.67
2019-02-04T06:16:29.487Z,11.23
2019-02-04T06:19:01.001Z,11.20
2019-02-04T06:21:30.186Z,10.00
2019-02-04T06:24:18.763Z,10.57
2019-02-04T06:26:48.282Z,10.60
2019-02-04T06:29:36.513Z,11.93
2019-02-04T06:32:26.745Z,13.90
2019-02-04T06:35:15.073Z,12.03
2019-02-04T06:37:46.842Z,10.47
2019-02-04T06:40:36.509Z,10.60
2019-02-04T06:43:25.325Z,11.87
2019-02-04T06:46:13.632Z,10.03
2019-02-04T06:49:12.100Z,11.00
2019-02-04T06:51:51.774Z,17.93
2019-02-04T06:54:40.001Z,25.00
2019-02-04T06:57:29.114Z,15.20
2019-02-04T07:00:17.577Z,11.30
2019-02-04T07:03:05.909Z,12.50
2019-02-04T07:05:54.207Z,11.70
2019-02-04T07:08:42.484Z,11.13
2019-02-04T07:11:30.718Z,10.73
2019-02-04T07:14:18.916Z,10.00
2019-02-04T07:17:01.507Z,12.30
2019-02-04T07:19:42.063Z,11.10
2019-02-04T07:22:23.306Z,10.90
2019-02-04T07:24:53.329Z,10.93
2019-02-04T07:27:41.578Z,11.17
2019-02-04T07:30:29.791Z,10.70
2019-02-04T07:33:18.275Z,10.50
2019-02-04T07:36:07.075Z,10.63
2019-02-04T07:38:38.269Z,11.70
2019-02-04T07:41:26.865Z,11.10
2019-02-04T07:44:15.780Z,11.30
2019-02-04T07:47:04.369Z,12.03
2019-02-04T07:49:52.923Z,10.47
2019-02-04T07:52:43.211Z,10.30
2019-02-04T07:55:31.784Z,11.70
2019-02-04T07:58:20.374Z,11.53
2019-02-04T08:01:08.971Z,12.67
2019-02-04T08:03:57.586Z,11.20
2019-02-04T08:06:45.820Z,10.80
2019-02-04T08:09:34.055Z,10.10
2019-02-04T08:12:22.587Z,10.90
2019-02-04T08:15:12.752Z,9.93
2019-02-04T08:17:53.204Z,10.60
2019-02-04T08:20:34.796Z,9.73
2019-02-04T08:23:15.366Z,9.70
2019-02-04T08:25:56.137Z,10.40
2019-02-04T08:28:37.403Z,11.10
2019-02-04T08:31:18.214Z,10.77
2019-02-04T08:33:59.265Z,11.20
2019-02-04T08:36:44.405Z,10.60
2019-02-04T08:39:22.939Z,12.10
2019-02-04T08:42:03.443Z,11.37
2019-02-04T08:44:44.416Z,11.80
2019-02-04T08:47:25.336Z,9.43
2019-02-04T08:50:07.041Z,10.23
2019-02-04T08:52:36.273Z,10.10
2019-02-04T08:55:24.898Z,11.20
2019-02-04T08:58:14.615Z,10.97
2019-02-04T09:01:02.832Z,11.60
2019-02-04T09:03:51.130Z,11.50
2019-02-04T09:06:39.603Z,11.53
2019-02-04T09:09:28.158Z,10.30
2019-02-04T09:12:16.741Z,9.43
2019-02-04T09:15:05.524Z,11.90
2019-02-04T09:17:47.114Z,11.20
2019-02-04T09:20:27.604Z,11.73
2019-02-04T09:23:08.582Z,12.10
2019-02-04T09:25:49.725Z,11.70
2019-02-04T09:28:30.480Z,11.20
2019-02-04T09:31:12.154Z,11.60
2019-02-04T09:33:53.382Z,11.70
2019-02-04T09:36:34.370Z,32.10
2019-02-04T09:39:15.906Z,10.83
2019-02-04T09:41:56.648Z,10.83
2019-02-04T09:44:37.180Z,12.67
2019-02-04T09:47:17.848Z,11.20
2019-02-04T09:49:59.224Z,11.10
2019-02-04T09:52:28.442Z,10.70
2019-02-04T09:55:18.335Z,12.17
2019-02-04T09:58:08.311Z,12.20
2019-02-04T10:00:56.637Z,11.63
2019-02-04T10:03:45.168Z,12.63
2019-02-04T10:06:33.465Z,12.83
2019-02-04T10:09:21.985Z,13.03
2019-02-04T10:12:10.231Z,12.47
2019-02-04T10:14:58.573Z,10.93
2019-02-04T10:17:46.966Z,12.23
2019-02-04T10:20:35.307Z,12.20
2019-02-04T10:23:23.835Z,11.90
2019-02-04T10:26:12.193Z,12.50
2019-02-04T10:29:02.427Z,12.27
2019-02-04T10:31:50.757Z,12.50
2019-02-04T10:34:39.053Z,12.53
2019-02-04T10:37:27.347Z,12.17
2019-02-04T10:40:16.690Z,11.30
2019-02-04T10:43:05.298Z,11.53
2019-02-04T10:45:53.764Z,11.10
2019-02-04T10:48:34.475Z,11.60
2019-02-04T10:51:15.163Z,10.90
2019-02-04T10:53:56.752Z,11.30
2019-02-04T10:56:38.266Z,12.10
2019-02-04T10:59:19.645Z,11.17
2019-02-04T11:04:59.404Z,10.60
2019-02-04T11:07:40.540Z,11.20
2019-02-04T11:10:23.484Z,10.77
2019-02-04T11:13:04.653Z,11.70
2019-02-04T11:15:34.374Z,12.00
2019-02-04T11:18:22.832Z,10.17
2019-02-04T11:21:11.179Z,11.83
2019-02-04T11:24:00.009Z,13.10
2019-02-04T11:26:48.813Z,11.47
2019-02-04T11:29:18.907Z,12.70
2019-02-04T11:32:08.542Z,10.53
2019-02-04T11:34:57.623Z,10.93
2019-02-04T11:37:47.697Z,9.50
2019-02-04T11:40:36.808Z,10.53
2019-02-04T11:43:25.779Z,9.90
2019-02-04T11:46:14.203Z,10.67
2019-02-04T11:49:02.950Z,10.60
2019-02-04T11:51:51.573Z,8.93
2019-02-04T11:54:39.787Z,9.40
2019-02-04T11:57:28.752Z,9.23
2019-02-04T12:00:18.314Z,9.60
2019-02-04T12:02:59.574Z,8.60
2019-02-04T12:05:40.182Z,9.67
2019-02-04T12:08:20.982Z,8.53
2019-02-04T12:11:01.859Z,9.23
2019-02-04T12:13:43.367Z,8.73
2019-02-04T12:16:24.671Z,10.33
2019-02-04T12:19:05.859Z,10.27
2019-02-04T12:21:46.367Z,9.40
2019-02-04T12:24:27.816Z,9.13
2019-02-04T12:27:09.806Z,10.70
2019-02-04T12:29:51.366Z,10.13
2019-02-04T12:32:33.040Z,8.63
2019-02-04T12:35:14.456Z,9.23
2019-02-04T12:37:54.973Z,9.43
2019-02-04T12:40:35.982Z,9.30
2019-02-04T12:43:17.257Z,9.73
2019-02-04T12:45:58.039Z,9.33
2019-02-04T12:48:39.543Z,9.63
2019-02-04T12:51:09.128Z,7.67
2019-02-04T12:53:38.710Z,8.93
2019-02-04T12:56:08.252Z,7.67
2019-02-04T12:58:56.967Z,9.00
2019-02-04T13:01:45.372Z,8.50
2019-02-04T13:04:33.594Z,7.90
2019-02-04T13:07:22.208Z,6.77
2019-02-04T13:10:10.963Z,8.07
2019-02-04T13:12:41.890Z,6.53
2019-02-04T13:15:13.639Z,7.47
2019-02-04T13:17:43.039Z,7.10
2019-02-04T13:20:14.109Z,6.23
2019-02-04T13:22:43.851Z,4.17
2019-02-04T13:25:16.312Z,4.90
2019-02-04T13:27:45.477Z,4.90
2019-02-04T13:30:15.924Z,5.47
2019-02-04T13:32:45.265Z,7.00
2019-02-04T13:35:15.191Z,4.87
2019-02-04T13:37:44.306Z,4.93
2019-02-04T13:40:17.243Z,5.80
2019-02-04T13:42:46.882Z,3.63
2019-02-04T13:45:18.167Z,3.10
2019-02-04T13:47:47.623Z,3.27
2019-02-04T13:50:17.502Z,3.10
2019-02-04T13:52:47.293Z,4.47
2019-02-04T13:55:22.736Z,5.23
2019-02-04T13:57:51.873Z,4.87
2019-02-04T14:00:21.180Z,10.13
2019-02-04T14:02:58.879Z,10.90
2019-02-04T14:05:21.867Z,4.77
2019-02-04T14:07:51.604Z,4.67
2019-02-04T14:10:26.047Z,3.80
2019-02-04T14:12:55.621Z,3.37
2019-02-04T14:15:25.740Z,3.60
2019-02-04T14:17:56.789Z,4.33
2019-02-04T14:20:26.474Z,3.40
2019-02-04T14:22:56.105Z,5.17
2019-02-04T14:25:25.688Z,5.30
2019-02-04T14:27:55.161Z,4.47
2019-02-04T14:30:28.972Z,4.70
2019-02-04T14:32:58.592Z,5.00
2019-02-04T14:35:28.130Z,4.80
2019-02-04T14:37:57.572Z,4.40
2019-02-04T14:40:26.942Z,4.47
2019-02-04T14:43:03.198Z,4.53
2019-02-04T14:46:25.537Z,5.07
2019-02-04T14:49:07.396Z,5.33
2019-02-04T14:52:20.673Z,4.20
2019-02-04T14:55:23.792Z,3.53
2019-02-04T14:58:05.912Z,3.70
2019-02-04T15:01:25.112Z,4.47
2019-02-04T15:04:21.786Z,3.30
2019-02-04T15:07:38.536Z,3.87
2019-02-04T15:10:50.795Z,2.67
2019-02-04T15:14:16.757Z,3.23
2019-02-04T15:17:35.988Z,3.13
2019-02-04T15:20:43.324Z,2.87
2019-02-04T15:23:36.895Z,2.60
2019-02-04T15:27:02.932Z,3.70
2019-02-04T15:29:57.169Z,3.03
2019-02-04T15:32:43.951Z,3.10
2019-02-04T15:35:49.710Z,2.90
2019-02-04T15:38:55.799Z,2.87
2019-02-04T15:42:02.234Z,3.60
2019-02-04T15:45:07.800Z,3.13
2019-02-04T15:47:58.758Z,3.00
2019-02-04T15:50:57.917Z,2.70
2019-02-04T15:53:27.449Z,3.07
2019-02-04T15:55:56.978Z,3.13
2019-02-04T15:58:26.668Z,2.67
2019-02-04T16:00:57.339Z,2.87
2019-02-04T16:03:26.885Z,3.30
2019-02-04T16:05:56.706Z,3.00
2019-02-04T16:08:26.440Z,2.93
2019-02-04T16:10:55.719Z,3.27
2019-02-04T16:13:25.823Z,3.10
2019-02-04T16:15:55.475Z,3.03
2019-02-04T16:18:26.055Z,3.33
2019-02-04T16:20:56.330Z,3.43
2019-02-04T16:23:26.403Z,3.40
2019-02-04T16:25:55.788Z,7.40
2019-02-04T16:28:25.191Z,4.07
2019-02-04T16:30:54.732Z,5.00
2019-02-04T16:33:24.163Z,5.50
2019-02-04T16:35:53.671Z,6.00
2019-02-04T16:38:22.971Z,4.60
2019-02-04T16:40:52.635Z,5.00
2019-02-04T16:43:21.877Z,4.70
2019-02-04T16:45:52.121Z,4.17
2019-02-04T16:48:21.540Z,4.30
2019-02-04T16:51:10.630Z,5.07
2019-02-04T16:53:22.470Z,4.80
2019-02-04T16:55:51.946Z,5.80
2019-02-04T16:58:22.038Z,8.93
2019-02-04T17:00:51.347Z,7.83
2019-02-04T17:03:20.576Z,5.07
2019-02-04T17:05:50.195Z,4.60
2019-02-04T17:08:19.791Z,4.90
2019-02-04T17:10:49.270Z,4.57
2019-02-04T17:13:19.098Z,4.20
2019-02-04T17:15:48.611Z,4.90
2019-02-04T17:18:18.808Z,4.73
2019-02-04T17:20:48.879Z,3.80
2019-02-04T17:23:22.316Z,4.50
2019-02-04T17:25:49.624Z,4.40
2019-02-04T17:28:19.500Z,4.83
2019-02-04T17:30:49.662Z,4.93
2019-02-04T17:33:19.100Z,5.13
2019-02-04T17:35:48.682Z,4.83
2019-02-04T17:38:18.255Z,4.70
2019-02-04T17:40:49.371Z,4.67
2019-02-04T17:43:19.272Z,5.27
2019-02-04T17:45:48.794Z,4.90
2019-02-04T17:48:18.209Z,6.07
2019-02-04T17:50:47.743Z,6.20
2019-02-04T17:53:17.372Z,8.10
2019-02-04T17:55:47.710Z,6.17
2019-02-04T17:58:16.911Z,5.90
2019-02-04T18:00:52.641Z,3.80
2019-02-04T18:03:22.437Z,4.70
2019-02-04T18:05:51.684Z,4.20
2019-02-04T18:08:21.447Z,4.80
2019-02-04T18:10:50.711Z,4.00
2019-02-04T18:13:20.633Z,4.50
2019-02-04T18:15:57.426Z,5.80
2019-02-04T18:18:27.192Z,5.77
2019-02-04T18:20:56.528Z,4.93
2019-02-04T18:23:25.823Z,3.87
2019-02-04T18:25:55.779Z,4.40
2019-02-04T18:28:26.125Z,4.40
2019-02-04T18:30:55.396Z,4.47
2019-02-04T18:33:25.660Z,4.67
2019-02-04T18:35:54.918Z,3.90
2019-02-04T18:38:24.613Z,4.27
2019-02-04T18:40:54.905Z,4.37
2019-02-04T18:43:24.586Z,3.63
2019-02-04T18:45:53.964Z,4.27
2019-02-04T18:48:23.433Z,4.63
2019-02-04T18:50:52.698Z,6.53
2019-02-04T18:53:21.833Z,4.73
2019-02-04T18:55:51.476Z,5.00
2019-02-04T18:58:20.671Z,4.47
2019-02-04T19:00:50.305Z,4.33
2019-02-04T19:03:19.605Z,4.20
2019-02-04T19:05:49.276Z,4.57
2019-02-04T19:08:18.420Z,3.70
2019-02-04T19:10:47.945Z,4.20
2019-02-04T19:13:17.149Z,17.27
2019-02-04T19:16:05.931Z,8.03
2019-02-04T19:18:54.254Z,6.47
2019-02-04T19:21:43.036Z,5.80
2019-02-04T19:24:32.303Z,5.07
2019-02-04T19:27:21.013Z,5.27
2019-02-04T19:30:13.395Z,3.77
2019-02-04T19:33:02.249Z,3.87
2019-02-04T19:35:50.811Z,4.97
2019-02-04T19:38:39.614Z,4.17
2019-02-04T19:41:28.066Z,3.93
2019-02-04T19:43:57.497Z,4.47
2019-02-04T19:46:46.588Z,3.73
2019-02-04T19:49:34.961Z,4.33
2019-02-04T19:52:23.906Z,4.37
2019-02-04T19:55:05.157Z,4.73
2019-02-04T19:57:34.684Z,4.27
2019-02-04T20:03:18.977Z,6.70
2019-02-04T20:06:00.416Z,6.50
2019-02-04T20:08:41.903Z,6.20
2019-02-04T20:11:22.852Z,5.50
2019-02-04T20:13:52.319Z,6.40
2019-02-04T20:16:40.867Z,5.60
2019-02-04T20:19:29.217Z,5.40
2019-02-04T20:21:58.706Z,5.40
2019-02-04T20:24:47.602Z,5.37
2019-02-04T20:27:36.198Z,5.20
2019-02-04T20:30:25.931Z,4.57
2019-02-04T20:33:14.395Z,5.80
2019-02-04T20:36:02.815Z,5.80
2019-02-04T20:38:51.501Z,4.90
2019-02-04T20:41:40.093Z,6.13
2019-02-04T20:44:28.358Z,6.00
2019-02-04T20:47:09.896Z,5.10
2019-02-04T20:49:51.206Z,6.30
2019-02-04T20:52:32.029Z,5.13
2019-02-04T20:55:13.114Z,5.53
2019-02-04T20:57:53.913Z,5.53
2019-02-04T21:00:35.290Z,5.73
2019-02-04T21:03:16.398Z,6.03
2019-02-04T21:05:57.943Z,6.33
2019-02-04T21:08:38.685Z,5.70
2019-02-04T21:11:19.531Z,5.23
2019-02-04T21:14:02.819Z,5.50
2019-02-04T21:16:43.167Z,5.67
2019-02-04T21:19:24.302Z,6.03
2019-02-04T21:22:06.292Z,7.83
2019-02-04T21:24:56.227Z,7.00
2019-02-04T21:27:29.939Z,6.97
2019-02-04T21:30:11.693Z,6.20
2019-02-04T21:32:52.130Z,5.17
2019-02-04T21:35:32.941Z,6.60
2019-02-04T21:38:13.710Z,6.07
2019-02-04T21:40:54.527Z,5.30
2019-02-04T21:43:35.968Z,6.90
2019-02-04T21:46:05.520Z,5.23
2019-02-04T21:48:55.452Z,5.53
2019-02-04T21:51:43.980Z,6.20
2019-02-04T21:54:32.183Z,6.43
2019-02-04T21:57:20.709Z,6.83
2019-02-04T22:00:13.703Z,6.60
2019-02-04T22:03:01.907Z,6.60
2019-02-04T22:05:50.154Z,5.97
2019-02-04T22:08:39.553Z,6.30
2019-02-04T22:11:27.303Z,7.30
2019-02-04T22:13:58.548Z,6.37
2019-02-04T22:16:27.866Z,7.57
2019-02-04T22:19:16.823Z,6.77
2019-02-04T22:22:05.168Z,6.73
2019-02-04T22:24:54.124Z,10.90
2019-02-04T22:27:44.103Z,7.53
2019-02-04T22:30:33.164Z,6.03
2019-02-04T22:33:21.804Z,6.53
2019-02-04T22:36:12.162Z,6.50
2019-02-04T22:39:00.478Z,6.60
2019-02-04T22:41:50.437Z,6.20
2019-02-04T22:44:38.936Z,6.33
2019-02-04T22:47:20.432Z,7.30
2019-02-04T22:50:01.584Z,6.40
2019-02-04T22:52:42.482Z,7.00
2019-02-04T22:55:31.697Z,6.93
2019-02-04T22:58:05.446Z,6.90
2019-02-04T23:00:48.629Z,12.40
2019-02-04T23:03:29.637Z,8.50
2019-02-04T23:06:13.433Z,6.50
2019-02-04T23:08:42.641Z,6.90
2019-02-04T23:11:31.107Z,6.80
2019-02-04T23:14:00.578Z,6.73
2019-02-04T23:16:29.726Z,6.57
2019-02-04T23:19:17.998Z,6.60
2019-02-04T23:22:06.240Z,6.97
2019-02-04T23:24:54.713Z,7.87
2019-02-04T23:27:43.112Z,7.60
2019-02-04T23:30:31.399Z,7.33
2019-02-04T23:33:19.883Z,8.17
2019-02-04T23:36:08.377Z,7.83
2019-02-04T23:38:56.655Z,8.67
2019-02-04T23:41:45.156Z,9.10
2019-02-04T23:44:33.456Z,7.23
2019-02-04T23:47:14.494Z,7.80
2019-02-04T23:49:55.758Z,9.00
2019-02-04T23:52:36.623Z,6.63
2019-02-04T23:55:18.047Z,7.50
2019-02-04T23:57:58.736Z,7.53
